ITY2036 LIRF-LIML
Flight info
| Callsign | ITY2036 |
|---|---|
| Flight time | 0h 50m |
| Altitude | 34000 |
| Route | GILIO DCT KARDU DCT EMBOS DCT GIPIX DCT KALMO |
| Aircraft | A20N/M-SDE2E3FGHIRWXY/LB1 |
Departure
| Time | 2026-05-05 10:22 |
|---|---|
| Airport | Rome–Fiumicino Leonardo da Vinci International Airport (LIRF) |
Arrival
| Time | 2026-05-05 11:13 |
|---|---|
| Airport | Milano Linate Airport (LIML) |
| Time | Latitude | Longitude | Altitude | Speed | Heading |
|---|---|---|---|---|---|
| 2026-05-05 09:32 | 41.79726 | 12.24834 | 18 ft | 0 kts | 249° |
| 2026-05-05 10:11 | 41.79726 | 12.24835 | 18 ft | 0 kts | 249° |
| 2026-05-05 10:11 | 41.79733 | 12.24859 | 19 ft | 4 kts | 249° |
| 2026-05-05 10:11 | 41.79741 | 12.24889 | 21 ft | 3 kts | 249° |
| 2026-05-05 10:12 | 41.79749 | 12.24917 | 22 ft | 3 kts | 251° |
| 2026-05-05 10:12 | 41.79747 | 12.24939 | 21 ft | 0 kts | 335° |
| 2026-05-05 10:13 | 41.79749 | 12.24938 | 22 ft | 1 kts | 335° |
| 2026-05-05 10:14 | 41.79766 | 12.24927 | 21 ft | 6 kts | 335° |
| 2026-05-05 10:14 | 41.79834 | 12.24892 | 19 ft | 16 kts | 340° |
| 2026-05-05 10:14 | 41.79965 | 12.24829 | 17 ft | 22 kts | 340° |
| 2026-05-05 10:14 | 41.80112 | 12.24773 | 16 ft | 21 kts | 1° |
| 2026-05-05 10:15 | 41.80197 | 12.24849 | 19 ft | 13 kts | 72° |
| 2026-05-05 10:15 | 41.80206 | 12.24960 | 21 ft | 12 kts | 91° |
| 2026-05-05 10:15 | 41.80210 | 12.25087 | 20 ft | 15 kts | 76° |
| 2026-05-05 10:15 | 41.80249 | 12.25232 | 20 ft | 19 kts | 69° |
| 2026-05-05 10:16 | 41.80300 | 12.25414 | 19 ft | 23 kts | 70° |
| 2026-05-05 10:16 | 41.80361 | 12.25633 | 18 ft | 27 kts | 69° |
| 2026-05-05 10:16 | 41.80426 | 12.25873 | 15 ft | 26 kts | 70° |
| 2026-05-05 10:16 | 41.80492 | 12.26110 | 18 ft | 28 kts | 70° |
| 2026-05-05 10:17 | 41.80559 | 12.26351 | 18 ft | 24 kts | 70° |
| 2026-05-05 10:17 | 41.80617 | 12.26564 | 17 ft | 26 kts | 69° |
| 2026-05-05 10:17 | 41.80669 | 12.26751 | 16 ft | 18 kts | 70° |
| 2026-05-05 10:17 | 41.80716 | 12.26924 | 12 ft | 22 kts | 70° |
| 2026-05-05 10:18 | 41.80765 | 12.27098 | 14 ft | 9 kts | 70° |
| 2026-05-05 10:18 | 41.80802 | 12.27138 | 13 ft | 7 kts | 3° |
| 2026-05-05 10:18 | 41.80864 | 12.27116 | 11 ft | 10 kts | 340° |
| 2026-05-05 10:18 | 41.80897 | 12.27100 | 11 ft | 4 kts | 340° |
| 2026-05-05 10:19 | 41.80905 | 12.27096 | 11 ft | 0 kts | 340° |
| 2026-05-05 10:21 | 41.80908 | 12.27095 | 11 ft | 2 kts | 340° |
| 2026-05-05 10:21 | 41.80947 | 12.27075 | 11 ft | 9 kts | 336° |
| 2026-05-05 10:21 | 41.80978 | 12.27018 | 12 ft | 8 kts | 270° |
| 2026-05-05 10:21 | 41.80962 | 12.26947 | 13 ft | 8 kts | 251° |
| 2026-05-05 10:22 | 41.80950 | 12.26899 | 13 ft | 25 kts | 251° |
| 2026-05-05 10:22 | 41.80763 | 12.26231 | 22 ft | 126 kts | 249° |
| 2026-05-05 10:22 | 41.80369 | 12.24775 | 250 ft | 192 kts | 248° |
| 2026-05-05 10:22 | 41.79891 | 12.22952 | 687 ft | 218 kts | 246° |
| 2026-05-05 10:23 | 41.79424 | 12.20911 | 1284 ft | 234 kts | 256° |
| 2026-05-05 10:23 | 41.79271 | 12.18742 | 2342 ft | 238 kts | 263° |
| 2026-05-05 10:23 | 41.79196 | 12.16470 | 3282 ft | 247 kts | 265° |
| 2026-05-05 10:23 | 41.79138 | 12.14146 | 4379 ft | 252 kts | 265° |
| 2026-05-05 10:24 | 41.79081 | 12.11803 | 5761 ft | 251 kts | 266° |
| 2026-05-05 10:24 | 41.79045 | 12.09466 | 7116 ft | 253 kts | 268° |
| 2026-05-05 10:24 | 41.79035 | 12.07102 | 8500 ft | 255 kts | 268° |
| 2026-05-05 10:24 | 41.79031 | 12.04712 | 9885 ft | 257 kts | 268° |
| 2026-05-05 10:25 | 41.79026 | 12.02268 | 10911 ft | 271 kts | 268° |
| 2026-05-05 10:25 | 41.79017 | 11.99619 | 11591 ft | 296 kts | 268° |
| 2026-05-05 10:25 | 41.79008 | 11.96797 | 12559 ft | 309 kts | 268° |
| 2026-05-05 10:25 | 41.79001 | 11.93876 | 13460 ft | 317 kts | 268° |
| 2026-05-05 10:26 | 41.78995 | 11.90883 | 14535 ft | 324 kts | 268° |
| 2026-05-05 10:26 | 41.78990 | 11.87847 | 15647 ft | 327 kts | 269° |
| 2026-05-05 10:26 | 41.79167 | 11.84874 | 16272 ft | 324 kts | 279° |
| 2026-05-05 10:26 | 41.79962 | 11.81972 | 16913 ft | 341 kts | 294° |
| 2026-05-05 10:27 | 41.81138 | 11.79167 | 17698 ft | 349 kts | 297° |
| 2026-05-05 10:27 | 41.82399 | 11.76360 | 18518 ft | 354 kts | 297° |
| 2026-05-05 10:27 | 41.83676 | 11.73525 | 19267 ft | 357 kts | 297° |
| 2026-05-05 10:27 | 41.84961 | 11.70657 | 20032 ft | 360 kts | 297° |
| 2026-05-05 10:28 | 41.86249 | 11.67765 | 20850 ft | 363 kts | 297° |
| 2026-05-05 10:28 | 41.87544 | 11.64845 | 21690 ft | 365 kts | 297° |
| 2026-05-05 10:28 | 41.88847 | 11.61899 | 22511 ft | 369 kts | 297° |
| 2026-05-05 10:28 | 41.90287 | 11.59028 | 23302 ft | 376 kts | 304° |
| 2026-05-05 10:29 | 41.92033 | 11.56351 | 23828 ft | 387 kts | 308° |
| 2026-05-05 10:29 | 41.93921 | 11.53664 | 24010 ft | 404 kts | 309° |
| 2026-05-05 10:29 | 41.95904 | 11.50873 | 24042 ft | 423 kts | 309° |
| 2026-05-05 10:29 | 41.97947 | 11.48004 | 24027 ft | 416 kts | 309° |
| 2026-05-05 10:30 | 41.99890 | 11.45277 | 24221 ft | 394 kts | 309° |
| 2026-05-05 10:30 | 42.01770 | 11.42620 | 24771 ft | 392 kts | 309° |
| 2026-05-05 10:30 | 42.03646 | 11.39957 | 25512 ft | 392 kts | 308° |
| 2026-05-05 10:30 | 42.05498 | 11.37322 | 26197 ft | 393 kts | 308° |
| 2026-05-05 10:31 | 42.07406 | 11.34604 | 26816 ft | 395 kts | 308° |
| 2026-05-05 10:31 | 42.09275 | 11.31939 | 27392 ft | 398 kts | 308° |
| 2026-05-05 10:31 | 42.11209 | 11.29179 | 27952 ft | 402 kts | 308° |
| 2026-05-05 10:31 | 42.13110 | 11.26464 | 28436 ft | 406 kts | 308° |
| 2026-05-05 10:32 | 42.15053 | 11.23686 | 28989 ft | 409 kts | 308° |
| 2026-05-05 10:32 | 42.17013 | 11.20883 | 29512 ft | 412 kts | 308° |
| 2026-05-05 10:32 | 42.18987 | 11.18058 | 30061 ft | 415 kts | 308° |
| 2026-05-05 10:32 | 42.20971 | 11.15214 | 30531 ft | 418 kts | 308° |
| 2026-05-05 10:33 | 42.22961 | 11.12362 | 31137 ft | 416 kts | 308° |
| 2026-05-05 10:33 | 42.24937 | 11.09528 | 31794 ft | 414 kts | 308° |
| 2026-05-05 10:33 | 42.26906 | 11.06700 | 32430 ft | 412 kts | 308° |
| 2026-05-05 10:33 | 42.28863 | 11.03884 | 33043 ft | 410 kts | 308° |
| 2026-05-05 10:34 | 42.30813 | 11.01076 | 33620 ft | 409 kts | 307° |
| 2026-05-05 10:34 | 42.32761 | 10.98267 | 33970 ft | 410 kts | 307° |
| 2026-05-05 10:34 | 42.36884 | 10.92900 | 34031 ft | 418 kts | 317° |
| 2026-05-05 10:35 | 42.41941 | 10.88861 | 34024 ft | 425 kts | 326° |
| 2026-05-05 10:35 | 42.46399 | 10.85890 | 34014 ft | 427 kts | 328° |
| 2026-05-05 10:36 | 42.51759 | 10.82414 | 34027 ft | 427 kts | 328° |
| 2026-05-05 10:36 | 42.57049 | 10.78914 | 34014 ft | 426 kts | 327° |
| 2026-05-05 10:37 | 42.62352 | 10.75345 | 34013 ft | 425 kts | 327° |
| 2026-05-05 10:37 | 42.67643 | 10.71760 | 34005 ft | 425 kts | 327° |
| 2026-05-05 10:38 | 42.72932 | 10.68168 | 34031 ft | 425 kts | 327° |
| 2026-05-05 10:38 | 42.78213 | 10.64580 | 34002 ft | 424 kts | 327° |
| 2026-05-05 10:39 | 42.83487 | 10.60990 | 34000 ft | 424 kts | 327° |
| 2026-05-05 10:39 | 42.88760 | 10.57394 | 34002 ft | 424 kts | 327° |
| 2026-05-05 10:40 | 42.94044 | 10.53781 | 33990 ft | 426 kts | 327° |
| 2026-05-05 10:40 | 42.99611 | 10.50817 | 33991 ft | 436 kts | 339° |
| 2026-05-05 10:41 | 43.05555 | 10.49018 | 34004 ft | 439 kts | 342° |
| 2026-05-05 10:41 | 43.11552 | 10.47454 | 34001 ft | 439 kts | 343° |
| 2026-05-05 10:42 | 43.20557 | 10.45140 | 33995 ft | 438 kts | 343° |
| 2026-05-05 10:43 | 43.26542 | 10.43568 | 33996 ft | 438 kts | 342° |
| 2026-05-05 10:43 | 43.32479 | 10.41994 | 33990 ft | 438 kts | 342° |
| 2026-05-05 10:44 | 43.38458 | 10.40406 | 33999 ft | 437 kts | 342° |
| 2026-05-05 10:44 | 43.44414 | 10.38821 | 33993 ft | 436 kts | 342° |
| 2026-05-05 10:45 | 43.50372 | 10.37233 | 33998 ft | 436 kts | 342° |
| 2026-05-05 10:45 | 43.56320 | 10.35645 | 34005 ft | 436 kts | 342° |
| 2026-05-05 10:46 | 43.62270 | 10.34053 | 33994 ft | 435 kts | 342° |
| 2026-05-05 10:46 | 43.68209 | 10.32461 | 33992 ft | 435 kts | 342° |
| 2026-05-05 10:47 | 43.74149 | 10.30865 | 33998 ft | 435 kts | 342° |
| 2026-05-05 10:47 | 43.80085 | 10.29267 | 34005 ft | 435 kts | 342° |
| 2026-05-05 10:48 | 43.85741 | 10.26723 | 33996 ft | 424 kts | 330° |
| 2026-05-05 10:48 | 43.91073 | 10.23280 | 34001 ft | 422 kts | 328° |
| 2026-05-05 10:49 | 43.96363 | 10.19670 | 33968 ft | 429 kts | 327° |
| 2026-05-05 10:49 | 43.99038 | 10.17814 | 33220 ft | 431 kts | 327° |
| 2026-05-05 10:49 | 44.01742 | 10.15932 | 32036 ft | 440 kts | 327° |
| 2026-05-05 10:49 | 44.04509 | 10.14008 | 30806 ft | 449 kts | 328° |
| 2026-05-05 10:50 | 44.07334 | 10.12058 | 29531 ft | 458 kts | 329° |
| 2026-05-05 10:50 | 44.10204 | 10.10091 | 28272 ft | 464 kts | 329° |
| 2026-05-05 10:50 | 44.13084 | 10.08121 | 27606 ft | 455 kts | 329° |
| 2026-05-05 10:50 | 44.15894 | 10.06201 | 27042 ft | 445 kts | 329° |
| 2026-05-05 10:51 | 44.18642 | 10.04317 | 26471 ft | 437 kts | 329° |
| 2026-05-05 10:51 | 44.21344 | 10.02459 | 25891 ft | 430 kts | 329° |
| 2026-05-05 10:51 | 44.24005 | 10.00627 | 25331 ft | 423 kts | 329° |
| 2026-05-05 10:51 | 44.26625 | 9.98819 | 24769 ft | 418 kts | 329° |
| 2026-05-05 10:52 | 44.29217 | 9.97029 | 24205 ft | 413 kts | 329° |
| 2026-05-05 10:52 | 44.31776 | 9.95260 | 23634 ft | 409 kts | 329° |
| 2026-05-05 10:52 | 44.34319 | 9.93501 | 23001 ft | 406 kts | 329° |
| 2026-05-05 10:52 | 44.36832 | 9.91760 | 22421 ft | 401 kts | 329° |
| 2026-05-05 10:53 | 44.39314 | 9.90041 | 21865 ft | 396 kts | 329° |
| 2026-05-05 10:53 | 44.41768 | 9.88339 | 21334 ft | 392 kts | 329° |
| 2026-05-05 10:53 | 44.44207 | 9.86642 | 20795 ft | 390 kts | 328° |
| 2026-05-05 10:53 | 44.46509 | 9.84687 | 20280 ft | 386 kts | 317° |
| 2026-05-05 10:54 | 44.48430 | 9.82027 | 19976 ft | 392 kts | 306° |
| 2026-05-05 10:54 | 44.50169 | 9.79079 | 19753 ft | 396 kts | 304° |
| 2026-05-05 10:54 | 44.51894 | 9.76050 | 19211 ft | 397 kts | 303° |
| 2026-05-05 10:54 | 44.53620 | 9.73009 | 18198 ft | 401 kts | 303° |
| 2026-05-05 10:55 | 44.55351 | 9.69964 | 17367 ft | 396 kts | 304° |
| 2026-05-05 10:55 | 44.57051 | 9.66983 | 16788 ft | 385 kts | 304° |
| 2026-05-05 10:55 | 44.58697 | 9.64098 | 16280 ft | 374 kts | 304° |
| 2026-05-05 10:55 | 44.60290 | 9.61334 | 15734 ft | 366 kts | 306° |
| 2026-05-05 10:56 | 44.62133 | 9.58870 | 15244 ft | 369 kts | 317° |
| 2026-05-05 10:56 | 44.64264 | 9.56816 | 14986 ft | 373 kts | 323° |
| 2026-05-05 10:56 | 44.66473 | 9.54906 | 14745 ft | 373 kts | 324° |
| 2026-05-05 10:56 | 44.68684 | 9.53058 | 14429 ft | 366 kts | 324° |
| 2026-05-05 10:57 | 44.70864 | 9.51257 | 13867 ft | 361 kts | 324° |
| 2026-05-05 10:57 | 44.73026 | 9.49476 | 13195 ft | 359 kts | 325° |
| 2026-05-05 10:57 | 44.75168 | 9.47713 | 12560 ft | 355 kts | 325° |
| 2026-05-05 10:57 | 44.77286 | 9.45972 | 11964 ft | 350 kts | 325° |
| 2026-05-05 10:58 | 44.79376 | 9.44251 | 11386 ft | 346 kts | 325° |
| 2026-05-05 10:58 | 44.81447 | 9.42545 | 10798 ft | 343 kts | 326° |
| 2026-05-05 10:58 | 44.83499 | 9.40854 | 10230 ft | 340 kts | 326° |
| 2026-05-05 10:58 | 44.85483 | 9.39224 | 10098 ft | 320 kts | 326° |
| 2026-05-05 10:59 | 44.87351 | 9.37691 | 10009 ft | 300 kts | 326° |
| 2026-05-05 10:59 | 44.89101 | 9.36247 | 9850 ft | 285 kts | 325° |
| 2026-05-05 10:59 | 44.90813 | 9.34825 | 9401 ft | 287 kts | 325° |
| 2026-05-05 10:59 | 44.92617 | 9.33584 | 9052 ft | 292 kts | 338° |
| 2026-05-05 11:00 | 44.94624 | 9.33031 | 8615 ft | 295 kts | 351° |
| 2026-05-05 11:00 | 44.96661 | 9.32786 | 8195 ft | 292 kts | 353° |
| 2026-05-05 11:00 | 44.98681 | 9.32594 | 7805 ft | 290 kts | 353° |
| 2026-05-05 11:00 | 45.00690 | 9.32407 | 7422 ft | 290 kts | 353° |
| 2026-05-05 11:01 | 45.02692 | 9.32207 | 7016 ft | 287 kts | 353° |
| 2026-05-05 11:01 | 45.04672 | 9.32001 | 6614 ft | 283 kts | 353° |
| 2026-05-05 11:01 | 45.06618 | 9.31796 | 6208 ft | 279 kts | 353° |
| 2026-05-05 11:01 | 45.08557 | 9.31587 | 6005 ft | 280 kts | 353° |
| 2026-05-05 11:02 | 45.10505 | 9.31375 | 5984 ft | 281 kts | 354° |
| 2026-05-05 11:02 | 45.12453 | 9.31164 | 5980 ft | 281 kts | 354° |
| 2026-05-05 11:02 | 45.14404 | 9.30952 | 5981 ft | 281 kts | 353° |
| 2026-05-05 11:02 | 45.16353 | 9.30739 | 5982 ft | 281 kts | 354° |
| 2026-05-05 11:03 | 45.18299 | 9.30527 | 5982 ft | 278 kts | 354° |
| 2026-05-05 11:03 | 45.20164 | 9.30326 | 5877 ft | 261 kts | 355° |
| 2026-05-05 11:03 | 45.21937 | 9.30132 | 5705 ft | 250 kts | 355° |
| 2026-05-05 11:03 | 45.23707 | 9.30160 | 5451 ft | 256 kts | 11° |
| 2026-05-05 11:04 | 45.25284 | 9.31149 | 5201 ft | 244 kts | 43° |
| 2026-05-05 11:04 | 45.26195 | 9.33060 | 4949 ft | 230 kts | 76° |
| 2026-05-05 11:04 | 45.26240 | 9.35218 | 4697 ft | 220 kts | 106° |
| 2026-05-05 11:04 | 45.25492 | 9.37031 | 4426 ft | 213 kts | 136° |
| 2026-05-05 11:05 | 45.24201 | 9.38001 | 4185 ft | 212 kts | 166° |
| 2026-05-05 11:05 | 45.22743 | 9.38152 | 3971 ft | 208 kts | 178° |
| 2026-05-05 11:05 | 45.21312 | 9.38033 | 3799 ft | 205 kts | 181° |
| 2026-05-05 11:05 | 45.19894 | 9.37875 | 3550 ft | 204 kts | 180° |
| 2026-05-05 11:06 | 45.18474 | 9.37801 | 3304 ft | 204 kts | 180° |
| 2026-05-05 11:06 | 45.17062 | 9.37633 | 3143 ft | 205 kts | 191° |
| 2026-05-05 11:06 | 45.15781 | 9.36765 | 3017 ft | 207 kts | 220° |
| 2026-05-05 11:06 | 45.15029 | 9.35049 | 2979 ft | 210 kts | 255° |
| 2026-05-05 11:07 | 45.15098 | 9.32999 | 2981 ft | 213 kts | 289° |
| 2026-05-05 11:07 | 45.15974 | 9.31340 | 2988 ft | 214 kts | 325° |
| 2026-05-05 11:07 | 45.17355 | 9.30628 | 2988 ft | 213 kts | 352° |
| 2026-05-05 11:07 | 45.18830 | 9.30438 | 2989 ft | 213 kts | 358° |
| 2026-05-05 11:08 | 45.20306 | 9.30298 | 2977 ft | 208 kts | 358° |
| 2026-05-05 11:08 | 45.21705 | 9.30159 | 2968 ft | 195 kts | 359° |
| 2026-05-05 11:08 | 45.23031 | 9.30015 | 2969 ft | 190 kts | 359° |
| 2026-05-05 11:08 | 45.24349 | 9.29877 | 2990 ft | 190 kts | 359° |
| 2026-05-05 11:09 | 45.25616 | 9.29741 | 3009 ft | 173 kts | 359° |
| 2026-05-05 11:09 | 45.26827 | 9.29606 | 3053 ft | 191 kts | 359° |
| 2026-05-05 11:09 | 45.28108 | 9.29464 | 3008 ft | 177 kts | 357° |
| 2026-05-05 11:09 | 45.29338 | 9.29327 | 3004 ft | 183 kts | 357° |
| 2026-05-05 11:10 | 45.30641 | 9.29185 | 3042 ft | 192 kts | 357° |
| 2026-05-05 11:10 | 45.32013 | 9.29003 | 2956 ft | 204 kts | 354° |
| 2026-05-05 11:10 | 45.33465 | 9.28758 | 2560 ft | 213 kts | 355° |
| 2026-05-05 11:10 | 45.34925 | 9.28605 | 2172 ft | 206 kts | 358° |
| 2026-05-05 11:11 | 45.36332 | 9.28449 | 1874 ft | 200 kts | 356° |
| 2026-05-05 11:11 | 45.37692 | 9.28271 | 1610 ft | 192 kts | 357° |
| 2026-05-05 11:11 | 45.39005 | 9.28220 | 1382 ft | 185 kts | 2° |
| 2026-05-05 11:11 | 45.39584 | 9.28226 | 1271 ft | 183 kts | 0° |
| 2026-05-05 11:12 | 45.40612 | 9.28142 | 1059 ft | 180 kts | 356° |
| 2026-05-05 11:12 | 45.41869 | 9.27994 | 724 ft | 181 kts | 356° |
| 2026-05-05 11:12 | 45.43073 | 9.27878 | 419 ft | 166 kts | 357° |
| 2026-05-05 11:12 | 45.44155 | 9.27760 | 355 ft | 144 kts | 355° |
| 2026-05-05 11:13 | 45.44831 | 9.27676 | 367 ft | 49 kts | 355° |
| 2026-05-05 11:13 | 45.44925 | 9.27665 | 363 ft | 3 kts | 355° |
| 2026-05-05 11:13 | 45.44997 | 9.27655 | 367 ft | 18 kts | 354° |
| 2026-05-05 11:13 | 45.45166 | 9.27636 | 365 ft | 29 kts | 356° |
| 2026-05-05 11:14 | 45.45352 | 9.27685 | 368 ft | 26 kts | 27° |
| 2026-05-05 11:14 | 45.45447 | 9.27773 | 366 ft | 13 kts | 52° |
| 2026-05-05 11:14 | 45.45460 | 9.27900 | 365 ft | 14 kts | 90° |
| 2026-05-05 11:14 | 45.45458 | 9.28040 | 367 ft | 14 kts | 93° |
| 2026-05-05 11:15 | 45.45429 | 9.28150 | 369 ft | 11 kts | 169° |
| 2026-05-05 11:15 | 45.45352 | 9.28140 | 368 ft | 11 kts | 203° |
| 2026-05-05 11:15 | 45.45268 | 9.28077 | 366 ft | 16 kts | 207° |
| 2026-05-05 11:15 | 45.45248 | 9.28031 | 364 ft | 3 kts | 280° |
| 2026-05-05 11:16 | 45.45251 | 9.27996 | 369 ft | 4 kts | 277° |
| 2026-05-05 11:16 | 45.45252 | 9.27988 | 369 ft | 0 kts | 277° |